Time;durP1;ratioP1;P1;durP2;ratioP2;P2;SDS_P1;SDS_P2;PMS_P1;PMS_P2;Temp;Humidity;BMP_temperature;BMP_pressure;BME280_temperature;BME280_humidity;BME280_pressure;Samples;Min_cycle;Max_cycle;Signal;HPM_P1;HPM_P2
2022/06/06 00:01:21;;;;;;;5.05;4.53;;;17.30;99.90;;;;;;5043560;28;20029;-78
2022/06/06 00:03:48;;;;;;;5.00;4.50;;;17.20;99.90;;;;;;5050124;28;20060;-78
2022/06/06 00:06:17;;;;;;;6.80;4.18;;;17.20;99.90;;;;;;5056027;28;20051;-76
2022/06/06 00:08:44;;;;;;;4.60;4.20;;;17.20;99.90;;;;;;5058150;28;20063;-78
2022/06/06 00:11:10;;;;;;;4.45;4.10;;;17.20;99.90;;;;;;5059654;28;20043;-78
2022/06/06 00:13:42;;;;;;;4.20;3.78;;;17.10;99.90;;;;;;5061078;28;20834;-80
2022/06/06 00:16:08;;;;;;;7.28;4.00;;;17.10;99.90;;;;;;5060298;28;20124;-80
2022/06/06 00:18:35;;;;;;;5.25;3.63;;;17.10;99.90;;;;;;5063599;28;20557;-79
2022/06/06 00:21:01;;;;;;;5.63;3.83;;;17.10;99.90;;;;;;5061840;28;20082;-80
2022/06/06 00:23:27;;;;;;;6.63;3.45;;;17.20;99.90;;;;;;5061858;28;20033;-79
2022/06/06 00:25:54;;;;;;;6.35;3.70;;;17.20;99.90;;;;;;5045416;28;20627;-78
2022/06/06 00:28:21;;;;;;;4.88;3.53;;;17.20;99.90;;;;;;5057781;28;20346;-79
2022/06/06 00:30:47;;;;;;;4.32;3.72;;;17.30;99.90;;;;;;5058095;28;20051;-78
2022/06/06 00:36:00;;;;;;;6.50;3.80;;;17.20;99.90;;;;;;5061257;28;20043;-77
2022/06/06 00:38:26;;;;;;;4.97;3.70;;;17.20;99.90;;;;;;5065089;28;20111;-77
2022/06/06 00:40:52;;;;;;;4.35;3.97;;;17.20;99.90;;;;;;5057232;28;20036;-78
2022/06/06 00:43:18;;;;;;;4.63;4.25;;;17.20;99.90;;;;;;5042247;28;20064;-79
2022/06/06 00:45:50;;;;;;;4.57;3.92;;;17.30;99.90;;;;;;5059664;28;20059;-78
2022/06/06 00:48:25;;;;;;;3.78;3.45;;;17.30;99.90;;;;;;5058666;28;20035;-76
2022/06/06 00:51:05;;;;;;;3.75;3.33;;;17.30;99.90;;;;;;5061952;28;20047;-75
2022/06/06 00:53:49;;;;;;;4.38;3.97;;;17.30;99.90;;;;;;5061863;28;20130;-75
2022/06/06 00:56:26;;;;;;;4.45;3.92;;;17.40;99.90;;;;;;5054780;28;20071;-76
2022/06/06 00:59:01;;;;;;;4.25;3.85;;;17.40;99.90;;;;;;5062037;28;20076;-77
2022/06/06 01:01:28;;;;;;;3.90;3.60;;;17.40;99.90;;;;;;5060296;28;20036;-76
2022/06/06 01:04:05;;;;;;;4.18;3.88;;;17.50;99.90;;;;;;5058276;28;20048;-76
2022/06/06 01:06:34;;;;;;;4.57;4.18;;;17.40;99.90;;;;;;5042582;28;20588;-76
2022/06/06 01:09:00;;;;;;;4.18;3.88;;;17.40;99.90;;;;;;5065010;28;20044;-76
2022/06/06 01:11:26;;;;;;;4.72;4.32;;;17.40;99.90;;;;;;5056586;28;20106;-76
2022/06/06 01:13:53;;;;;;;4.28;3.97;;;17.30;99.90;;;;;;5057575;28;20024;-76
2022/06/06 01:16:24;;;;;;;4.43;4.03;;;17.30;99.90;;;;;;5059374;28;20032;-76
2022/06/06 01:18:49;;;;;;;3.90;3.60;;;17.30;99.90;;;;;;5058124;28;20041;-75
2022/06/06 01:21:43;;;;;;;4.90;4.03;;;17.30;99.90;;;;;;5060344;28;20040;-75
2022/06/06 01:24:48;;;;;;;7.72;3.85;;;17.30;99.90;;;;;;5062923;28;20021;-75
2022/06/06 01:27:29;;;;;;;3.97;3.60;;;17.40;99.90;;;;;;5061647;28;20032;-75
2022/06/06 01:30:03;;;;;;;4.60;3.70;;;17.40;99.90;;;;;;5056513;28;20033;-75
2022/06/06 01:32:36;;;;;;;4.53;3.55;;;17.50;99.90;;;;;;5061354;28;20111;-76
2022/06/06 01:35:03;;;;;;;3.78;3.47;;;17.50;99.90;;;;;;5063087;28;20055;-77
2022/06/06 01:37:37;;;;;;;4.15;3.42;;;17.60;99.90;;;;;;5057752;28;20074;-74
2022/06/06 01:40:07;;;;;;;5.97;3.53;;;17.60;99.90;;;;;;5054600;28;20044;-74
2022/06/06 01:42:48;;;;;;;6.97;3.90;;;17.60;99.90;;;;;;5064747;28;20063;-75
2022/06/06 01:45:21;;;;;;;16.48;4.40;;;17.70;99.90;;;;;;5061499;28;20048;-76
2022/06/06 01:47:53;;;;;;;4.93;3.42;;;17.70;99.90;;;;;;5054867;28;20032;-76
2022/06/06 01:50:20;;;;;;;6.97;3.50;;;17.80;99.90;;;;;;5061021;28;20032;-76
2022/06/06 01:52:50;;;;;;;4.25;3.85;;;17.80;99.90;;;;;;5063125;28;20105;-76
2022/06/06 01:55:16;;;;;;;4.13;3.70;;;17.80;99.90;;;;;;5057387;28;20048;-76
2022/06/06 01:57:43;;;;;;;8.50;3.60;;;17.80;99.90;;;;;;5064912;28;20101;-76
2022/06/06 02:00:10;;;;;;;4.30;3.90;;;17.80;99.90;;;;;;5052951;28;20052;-75
2022/06/06 02:02:36;;;;;;;3.88;3.58;;;17.90;99.90;;;;;;5033962;28;20048;-76
2022/06/06 02:05:02;;;;;;;4.10;3.40;;;17.90;99.90;;;;;;5055160;28;20044;-74
2022/06/06 02:07:27;;;;;;;4.32;3.92;;;17.90;99.90;;;;;;5061245;28;20052;-75
2022/06/06 02:09:53;;;;;;;9.60;4.22;;;17.80;99.90;;;;;;5054523;28;20116;-74
2022/06/06 02:12:20;;;;;;;5.25;3.55;;;17.80;99.90;;;;;;5036278;28;20148;-73
2022/06/06 02:14:47;;;;;;;5.20;3.60;;;17.90;99.90;;;;;;5061696;28;20036;-75
2022/06/06 02:17:13;;;;;;;3.63;3.10;;;17.90;99.90;;;;;;5058790;28;20067;-75
2022/06/06 02:19:39;;;;;;;3.75;3.22;;;18.00;99.90;;;;;;5055502;28;20497;-75
2022/06/06 02:22:06;;;;;;;7.63;3.53;;;17.90;99.90;;;;;;5057362;28;20084;-75
2022/06/06 02:24:32;;;;;;;4.65;3.92;;;17.90;99.90;;;;;;5058439;28;20457;-75
2022/06/06 02:26:57;;;;;;;3.83;3.53;;;17.90;99.90;;;;;;5051797;28;20070;-75
2022/06/06 02:29:23;;;;;;;4.55;3.60;;;18.00;99.90;;;;;;5054573;28;20489;-75
2022/06/06 02:31:49;;;;;;;4.15;3.60;;;18.00;99.90;;;;;;5059816;28;20032;-74
2022/06/06 02:34:15;;;;;;;4.85;3.33;;;18.00;99.90;;;;;;5055678;28;20175;-74
2022/06/06 02:36:41;;;;;;;6.97;3.72;;;17.70;99.90;;;;;;5062416;28;20059;-74
2022/06/06 02:39:07;;;;;;;3.30;3.00;;;17.60;99.90;;;;;;5058981;28;20102;-74
2022/06/06 02:41:33;;;;;;;4.22;3.83;;;17.60;99.90;;;;;;5057260;28;20044;-74
2022/06/06 02:43:58;;;;;;;6.10;3.22;;;17.50;99.90;;;;;;5057658;28;20040;-74
2022/06/06 02:46:24;;;;;;;6.15;3.45;;;17.50;99.90;;;;;;5052855;28;20678;-75
2022/06/06 02:48:50;;;;;;;3.35;3.05;;;17.50;99.90;;;;;;5054996;28;20474;-74
2022/06/06 02:51:15;;;;;;;3.03;2.83;;;17.60;99.90;;;;;;5054112;28;20776;-74
2022/06/06 02:53:41;;;;;;;3.47;2.90;;;17.60;99.90;;;;;;5059566;28;20044;-74
2022/06/06 02:56:07;;;;;;;4.03;3.03;;;17.40;99.90;;;;;;5055243;28;20036;-74
2022/06/06 02:58:33;;;;;;;3.13;2.88;;;17.30;99.90;;;;;;5038041;28;20044;-74
2022/06/06 03:01:04;;;;;;;6.20;3.13;;;17.30;99.90;;;;;;5054252;28;20153;-74
2022/06/06 03:03:30;;;;;;;6.90;2.95;;;17.40;99.90;;;;;;5058894;28;20064;-74
2022/06/06 03:06:05;;;;;;;3.03;2.83;;;17.40;99.90;;;;;;5055759;28;20048;-73
2022/06/06 03:08:47;;;;;;;4.65;3.20;;;17.40;99.90;;;;;;5060097;28;20171;-73
2022/06/06 03:11:19;;;;;;;2.83;2.63;;;17.40;99.90;;;;;;5056031;28;20063;-74
2022/06/06 03:13:53;;;;;;;3.15;2.95;;;17.30;99.90;;;;;;5058056;28;20033;-74
2022/06/06 03:23:31;;;;;;;6.40;2.67;;;17.30;99.90;;;;;;5052038;28;20098;-75
2022/06/06 03:26:19;;;;;;;6.57;3.53;;;17.40;99.90;;;;;;5048489;28;20745;-75
2022/06/06 03:28:48;;;;;;;7.15;3.33;;;17.40;99.90;;;;;;5044155;28;20049;-75
2022/06/06 03:31:37;;;;;;;3.67;2.85;;;17.40;99.90;;;;;;5058025;28;20711;-75
2022/06/06 03:34:14;;;;;;;3.55;3.25;;;17.40;99.90;;;;;;5055084;28;20719;-74
2022/06/06 03:36:55;;;;;;;3.92;3.17;;;17.30;99.90;;;;;;5052541;28;20048;-75
2022/06/06 03:39:27;;;;;;;4.60;2.60;;;17.20;99.90;;;;;;5054411;28;20041;-75
2022/06/06 03:42:03;;;;;;;;;;;17.20;99.90;;;;;;5055873;28;20605;-75
2022/06/06 03:44:46;;;;;;;2.75;2.55;;;17.00;99.90;;;;;;5059539;28;19916;-75
2022/06/06 03:47:28;;;;;;;12.48;3.10;;;17.00;99.90;;;;;;5052211;28;20043;-75
2022/06/06 03:50:20;;;;;;;4.20;2.55;;;17.10;99.90;;;;;;5057550;28;20641;-75
2022/06/06 03:52:52;;;;;;;4.55;2.78;;;17.20;99.90;;;;;;5054053;28;21349;-76
2022/06/06 03:56:01;;;;;;;2.92;2.72;;;17.30;99.90;;;;;;5052214;28;20078;-75
2022/06/06 03:58:30;;;;;;;5.78;2.63;;;17.40;99.90;;;;;;5057273;28;20032;-76
2022/06/06 04:00:59;;;;;;;3.05;2.50;;;17.50;99.90;;;;;;5058140;28;20037;-75
2022/06/06 04:03:27;;;;;;;3.97;2.63;;;17.50;99.90;;;;;;5056614;28;20190;-76
2022/06/06 04:05:52;;;;;;;4.25;2.97;;;17.50;99.90;;;;;;5056650;28;20028;-76
2022/06/06 04:08:18;;;;;;;3.00;2.80;;;17.50;99.90;;;;;;5057510;28;20746;-76
2022/06/06 04:11:22;;;;;;;3.45;3.10;;;17.60;99.90;;;;;;5058160;28;20071;-75
2022/06/06 04:14:36;;;;;;;3.28;2.97;;;17.60;99.90;;;;;;5056247;28;20037;-76
2022/06/06 04:17:37;;;;;;;8.88;2.95;;;17.50;99.90;;;;;;4991709;28;20040;-76
2022/06/06 04:20:31;;;;;;;5.03;2.90;;;17.50;99.90;;;;;;5039762;28;20051;-76
2022/06/06 04:23:22;;;;;;;3.13;2.92;;;17.50;99.90;;;;;;5052677;28;20979;-76
2022/06/06 04:26:05;;;;;;;3.05;2.70;;;17.50;99.90;;;;;;5052852;28;20068;-76
2022/06/06 04:28:56;;;;;;;3.75;2.80;;;17.40;99.90;;;;;;5055080;28;20064;-76
2022/06/06 04:31:44;;;;;;;5.93;2.50;;;17.30;99.90;;;;;;5056324;28;20041;-75
2022/06/06 04:34:14;;;;;;;3.53;2.95;;;17.20;99.90;;;;;;5052363;28;20918;-76
2022/06/06 04:36:50;;;;;;;3.28;2.67;;;17.20;99.90;;;;;;5055203;28;20483;-75
2022/06/06 04:39:25;;;;;;;3.15;2.85;;;17.30;99.90;;;;;;5057152;28;20041;-76
2022/06/06 04:42:04;;;;;;;4.30;3.10;;;17.40;99.90;;;;;;5058187;28;20285;-76
2022/06/06 04:44:37;;;;;;;3.17;2.65;;;17.50;99.90;;;;;;5055214;28;20036;-76
2022/06/06 04:47:10;;;;;;;3.92;2.63;;;17.50;99.90;;;;;;5060859;28;20082;-75
2022/06/06 04:49:36;;;;;;;3.58;2.50;;;17.60;99.90;;;;;;5055819;28;20044;-75
2022/06/06 04:52:03;;;;;;;3.20;3.00;;;17.60;99.90;;;;;;5054163;28;20043;-74
2022/06/06 04:54:32;;;;;;;8.60;3.15;;;17.60;99.90;;;;;;5058488;28;20106;-75
2022/06/06 04:57:00;;;;;;;3.00;2.55;;;17.60;99.90;;;;;;5056134;28;20151;-74
2022/06/06 04:59:29;;;;;;;2.80;2.60;;;17.70;99.90;;;;;;5060999;28;20052;-74
2022/06/06 05:01:57;;;;;;;3.70;2.50;;;17.60;99.90;;;;;;5064179;28;20112;-74
2022/06/06 05:04:23;;;;;;;3.10;2.85;;;17.70;99.90;;;;;;5059048;28;20106;-77
2022/06/06 05:06:51;;;;;;;3.40;3.03;;;17.70;99.90;;;;;;5055331;28;20029;-77
2022/06/06 05:09:23;;;;;;;2.80;2.60;;;17.70;99.90;;;;;;5060889;28;20063;-77
2022/06/06 05:12:20;;;;;;;3.90;3.50;;;17.80;99.90;;;;;;5061328;28;20040;-77
2022/06/06 05:15:02;;;;;;;2.75;2.55;;;17.80;99.90;;;;;;5062909;28;20048;-76
2022/06/06 05:17:40;;;;;;;2.88;2.67;;;17.70;99.90;;;;;;5060563;28;20501;-77
2022/06/06 05:20:29;;;;;;;3.60;3.30;;;17.60;99.90;;;;;;5056033;28;20580;-78
2022/06/06 05:23:10;;;;;;;3.08;2.67;;;17.60;99.90;;;;;;5052479;28;20052;-78
2022/06/06 05:26:13;;;;;;;3.30;3.00;;;17.60;99.90;;;;;;5061081;28;20036;-78
2022/06/06 05:28:57;;;;;;;;;;;17.70;99.90;;;;;;5057170;28;20029;-78
2022/06/06 05:31:32;;;;;;;2.80;2.60;;;17.80;99.90;;;;;;5060815;28;19938;-77
2022/06/06 05:34:18;;;;;;;3.40;3.00;;;17.90;99.90;;;;;;5058914;28;20334;-77
2022/06/06 05:36:59;;;;;;;3.22;2.72;;;18.00;99.90;;;;;;5062385;28;20036;-77
2022/06/06 05:39:46;;;;;;;3.53;3.22;;;18.10;99.90;;;;;;5055001;28;20052;-77
2022/06/06 05:42:15;;;;;;;4.30;2.80;;;18.20;99.90;;;;;;5056597;28;20123;-78
2022/06/06 05:45:09;;;;;;;3.05;2.60;;;18.20;99.90;;;;;;5057876;28;20040;-78
2022/06/06 05:48:15;;;;;;;3.10;2.90;;;18.30;99.90;;;;;;5060511;28;21481;-78
2022/06/06 05:50:58;;;;;;;2.95;2.75;;;18.30;99.90;;;;;;5055571;28;20040;-77
2022/06/06 05:53:47;;;;;;;3.35;3.05;;;18.40;99.90;;;;;;5057768;28;20470;-77
2022/06/06 05:56:52;;;;;;;3.80;3.28;;;18.60;99.90;;;;;;5043821;28;20108;-77
2022/06/06 05:59:40;;;;;;;4.75;3.17;;;18.60;99.90;;;;;;5058732;28;20451;-76
2022/06/06 06:02:30;;;;;;;3.63;3.33;;;18.80;99.90;;;;;;5059714;28;20032;-77
2022/06/06 06:05:14;;;;;;;4.25;3.30;;;18.90;99.90;;;;;;5058123;28;20716;-78
2022/06/06 06:07:52;;;;;;;3.47;3.20;;;19.00;99.90;;;;;;5055365;28;20390;-78
2022/06/06 06:10:35;;;;;;;3.42;3.20;;;19.00;99.90;;;;;;5061483;28;20120;-78
2022/06/06 06:13:31;;;;;;;3.60;3.30;;;19.00;99.90;;;;;;5052404;28;20032;-78
2022/06/06 06:16:00;;;;;;;4.30;3.58;;;19.00;99.90;;;;;;5059461;28;20519;-77
2022/06/06 06:18:31;;;;;;;4.18;3.67;;;19.00;99.90;;;;;;5055906;28;20041;-78
2022/06/06 06:21:20;;;;;;;3.92;3.60;;;19.00;99.90;;;;;;5058738;28;20599;-78
2022/06/06 06:23:58;;;;;;;4.63;3.30;;;19.00;99.90;;;;;;5054624;28;20147;-77
2022/06/06 06:26:25;;;;;;;4.30;3.30;;;19.00;99.90;;;;;;5051554;28;20543;-78
2022/06/06 06:28:54;;;;;;;3.80;3.50;;;19.10;99.90;;;;;;5057885;28;20044;-78
2022/06/06 06:31:45;;;;;;;3.88;3.33;;;19.10;99.90;;;;;;5054088;28;20048;-77
2022/06/06 06:34:11;;;;;;;16.45;4.03;;;19.20;99.90;;;;;;5059075;28;20040;-74
2022/06/06 06:37:08;;;;;;;4.07;3.30;;;19.10;99.90;;;;;;5060758;28;20041;-74
2022/06/06 06:39:44;;;;;;;11.25;4.53;;;19.10;99.90;;;;;;4968525;28;20061;-75
2022/06/06 06:42:26;;;;;;;8.60;3.95;;;19.20;99.90;;;;;;5053580;28;20032;-74
2022/06/06 06:45:02;;;;;;;8.70;3.63;;;19.20;99.90;;;;;;5059237;28;20091;-74
2022/06/06 06:47:33;;;;;;;4.10;3.80;;;19.20;99.90;;;;;;5058433;28;20029;-75
2022/06/06 06:50:25;;;;;;;4.35;3.90;;;19.30;99.90;;;;;;5057066;28;20086;-77
2022/06/06 06:52:51;;;;;;;3.90;3.60;;;19.30;99.90;;;;;;5059377;28;20024;-75
2022/06/06 06:55:42;;;;;;;5.68;3.70;;;19.40;99.90;;;;;;5054554;28;20047;-75
2022/06/06 06:58:17;;;;;;;4.85;3.75;;;19.50;99.90;;;;;;5058914;28;20032;-75
2022/06/06 07:00:52;;;;;;;3.35;3.05;;;19.50;99.90;;;;;;5042286;28;20126;-74
2022/06/06 07:10:22;;;;;;;8.18;4.40;;;19.50;99.90;;;;;;5040078;28;20185;-72
2022/06/06 07:13:10;;;;;;;6.10;4.38;;;19.60;99.90;;;;;;5036539;28;21025;-75
2022/06/06 07:15:54;;;;;;;8.25;3.67;;;19.70;99.90;;;;;;5046606;28;20044;-75
2022/06/06 07:18:24;;;;;;;5.00;3.85;;;19.70;99.90;;;;;;5038662;28;20493;-72
2022/06/06 07:20:51;;;;;;;3.88;3.58;;;19.70;99.90;;;;;;5040416;28;20638;-70
2022/06/06 07:23:18;;;;;;;4.10;3.70;;;19.70;99.90;;;;;;5058245;28;20056;-71
2022/06/06 07:25:49;;;;;;;6.00;3.60;;;19.80;99.90;;;;;;5055610;28;20025;-72
2022/06/06 07:28:18;;;;;;;5.43;3.60;;;19.80;99.90;;;;;;5052545;28;20109;-70
2022/06/06 07:30:57;;;;;;;3.65;3.42;;;19.80;99.90;;;;;;5055243;28;20032;-71
2022/06/06 07:33:29;;;;;;;5.13;3.63;;;19.80;99.90;;;;;;5054885;28;20064;-70
2022/06/06 07:36:13;;;;;;;5.80;3.50;;;19.90;99.90;;;;;;5058219;28;20033;-80
2022/06/06 07:39:18;;;;;;;3.83;3.35;;;20.00;99.90;;;;;;5056066;28;20036;-78
2022/06/06 07:42:19;;;;;;;5.60;3.33;;;20.10;99.90;;;;;;5011580;28;20087;-83
2022/06/06 07:44:45;;;;;;;6.30;3.38;;;20.20;99.90;;;;;;5058417;28;21064;-85
2022/06/06 07:47:45;;;;;;;10.63;3.60;;;20.20;99.90;;;;;;5054568;28;20222;-88
2022/06/06 07:50:18;;;;;;;6.78;3.80;;;20.30;99.90;;;;;;5038562;28;20047;-80
2022/06/06 07:53:35;;;;;;;3.50;3.20;;;20.30;99.90;;;;;;5057308;28;20074;-87
2022/06/06 07:56:16;;;;;;;7.10;4.00;;;20.40;99.90;;;;;;4975928;28;20722;-69
2022/06/06 07:59:03;;;;;;;13.68;3.70;;;20.40;99.90;;;;;;4973589;28;20050;-70
2022/06/06 08:40:55;;;;;;;2.63;2.30;;;22.10;96.00;;;;;;5012821;28;20056;-74
2022/06/06 08:43:54;;;;;;;2.10;1.95;;;22.30;93.00;;;;;;5011971;28;20049;-73
2022/06/06 08:46:28;;;;;;;7.63;2.38;;;22.20;96.40;;;;;;5021162;28;20464;-74
2022/06/06 08:50:44;;;;;;;2.15;1.83;;;22.40;95.80;;;;;;5004037;28;21796;-73
2022/06/06 08:52:31;;;;;;;2.40;2.20;;;22.30;93.50;;;;;;5016987;28;20057;-72
2022/06/06 08:55:20;;;;;;;3.47;2.17;;;22.30;93.30;;;;;;5016570;28;20053;-71
2022/06/06 08:57:55;;;;;;;2.55;2.35;;;22.30;95.30;;;;;;5018196;28;20048;-72
2022/06/06 09:00:59;;;;;;;2.63;2.20;;;22.50;95.50;;;;;;5016349;28;20398;-71
2022/06/06 09:03:35;;;;;;;4.45;1.90;;;22.60;95.00;;;;;;4981928;28;20192;-74
2022/06/06 09:06:19;;;;;;;5.25;2.13;;;22.70;94.90;;;;;;5024079;28;20034;-75
2022/06/06 09:09:04;;;;;;;3.70;2.00;;;22.80;94.60;;;;;;5015942;28;20049;-76
2022/06/06 09:11:55;;;;;;;1.90;1.80;;;22.80;93.50;;;;;;5024278;28;20117;-74
2022/06/06 09:14:48;;;;;;;2.30;2.10;;;22.80;94.20;;;;;;4964166;28;21151;-77
2022/06/06 09:17:42;;;;;;;1.67;1.58;;;22.80;93.50;;;;;;5019705;28;20148;-77
2022/06/06 09:20:14;;;;;;;1.92;1.83;;;22.90;93.40;;;;;;5018703;28;20045;-78
2022/06/06 09:23:10;;;;;;;2.30;2.08;;;23.00;94.20;;;;;;5022233;28;20029;-76
2022/06/06 09:25:57;;;;;;;2.00;1.80;;;23.10;93.20;;;;;;5023247;28;20127;-78
2022/06/06 09:28:41;;;;;;;2.90;2.03;;;23.10;93.30;;;;;;5019334;28;20069;-77
2022/06/06 09:31:22;;;;;;;2.88;2.30;;;23.20;93.00;;;;;;5017894;28;20032;-75
2022/06/06 09:34:07;;;;;;;8.07;2.42;;;23.20;94.80;;;;;;5018962;28;20452;-73
2022/06/06 09:36:46;;;;;;;5.88;2.35;;;23.40;93.90;;;;;;5018120;28;20382;-78
2022/06/06 09:39:36;;;;;;;2.63;1.83;;;23.50;94.00;;;;;;5018334;28;20081;-78
2022/06/06 09:42:15;;;;;;;2.20;2.00;;;23.60;92.40;;;;;;5011587;28;20049;-77
2022/06/06 09:44:59;;;;;;;3.30;2.30;;;23.60;94.00;;;;;;5010038;28;20041;-76
2022/06/06 09:48:06;;;;;;;6.93;2.72;;;23.80;92.90;;;;;;5019774;28;20629;-79
2022/06/06 09:50:51;;;;;;;4.18;2.30;;;23.80;91.00;;;;;;5011787;28;20087;-78
2022/06/06 09:59:01;;;;;;;3.50;2.53;;;23.70;91.80;;;;;;5015648;28;20033;-76
2022/06/06 09:59:58;;;;;;;2.40;2.20;;;23.90;90.80;;;;;;5012439;28;20070;-78
2022/06/06 10:02:38;;;;;;;4.18;2.30;;;24.00;92.60;;;;;;5017016;28;20037;-80
2022/06/06 10:05:52;;;;;;;3.25;2.45;;;24.10;91.10;;;;;;5017256;28;20029;-80
2022/06/06 10:09:08;;;;;;;2.10;1.90;;;24.20;90.90;;;;;;4951842;28;20607;-81
2022/06/06 10:12:07;;;;;;;3.10;2.13;;;24.20;88.50;;;;;;4932312;28;20039;-75
2022/06/06 10:15:26;;;;;;;2.00;1.70;;;24.30;90.10;;;;;;4924723;28;20049;-74
2022/06/06 10:18:07;;;;;;;5.00;2.28;;;24.30;86.90;;;;;;4961082;28;20138;-72
2022/06/06 10:20:35;;;;;;;3.35;2.10;;;24.40;86.10;;;;;;5013537;28;20081;-71
2022/06/06 10:23:20;;;;;;;1.90;1.80;;;24.40;86.30;;;;;;5016154;28;20045;-70
2022/06/06 10:25:52;;;;;;;3.35;2.00;;;24.40;89.30;;;;;;5019936;28;20072;-73
2022/06/06 10:28:42;;;;;;;2.03;1.92;;;24.50;86.10;;;;;;5015909;28;20141;-79
2022/06/06 10:31:10;;;;;;;2.90;1.92;;;24.60;86.40;;;;;;5009330;28;20122;-76
2022/06/06 10:34:01;;;;;;;2.20;1.95;;;24.60;86.40;;;;;;5017995;28;20045;-77
2022/06/06 10:36:26;;;;;;;2.30;1.98;;;24.70;86.20;;;;;;5012228;28;20037;-80
2022/06/06 10:39:00;;;;;;;1.85;1.75;;;24.80;89.50;;;;;;5010885;28;20060;-81
2022/06/06 10:41:59;;;;;;;2.92;1.83;;;24.90;82.00;;;;;;5004046;28;20053;-77
2022/06/06 10:44:42;;;;;;;6.45;1.80;;;24.90;82.70;;;;;;4997868;28;20045;-79
2022/06/06 10:47:32;;;;;;;1.95;1.80;;;24.90;84.30;;;;;;4993713;28;20042;-81
2022/06/06 10:50:26;;;;;;;6.00;1.42;;;24.90;88.70;;;;;;4995517;28;20042;-80
2022/06/06 10:53:30;;;;;;;2.10;1.90;;;25.00;84.70;;;;;;4955369;28;20198;-75
2022/06/06 10:56:20;;;;;;;2.00;1.63;;;25.10;86.40;;;;;;4965418;28;20049;-75
2022/06/06 10:58:58;;;;;;;2.17;1.90;;;25.10;82.60;;;;;;4994921;28;20046;-75
2022/06/06 11:01:37;;;;;;;2.22;1.80;;;25.10;82.10;;;;;;4985056;28;20041;-74
2022/06/06 11:04:24;;;;;;;1.73;1.55;;;25.10;83.50;;;;;;4998117;28;20085;-77
2022/06/06 11:07:11;;;;;;;2.47;1.38;;;25.20;80.50;;;;;;4990866;28;20049;-80
2022/06/06 11:09:55;;;;;;;1.92;1.65;;;25.30;76.70;;;;;;4978594;28;20580;-79
2022/06/06 11:12:42;;;;;;;2.53;2.00;;;25.20;78.30;;;;;;4981270;28;20161;-77
2022/06/06 11:15:08;;;;;;;2.00;1.90;;;25.30;77.90;;;;;;4989594;28;20033;-79
2022/06/06 11:17:58;;;;;;;7.03;2.13;;;25.10;78.00;;;;;;4987101;28;20044;-75
2022/06/06 11:20:46;;;;;;;2.17;1.80;;;25.00;82.00;;;;;;4984695;28;20041;-70
2022/06/06 11:23:44;;;;;;;4.47;2.40;;;25.20;77.00;;;;;;4982543;28;20058;-70
2022/06/06 11:26:55;;;;;;;3.72;2.05;;;25.10;79.80;;;;;;4994664;28;20521;-69
2022/06/06 11:29:44;;;;;;;1.90;1.80;;;25.10;79.00;;;;;;4994417;28;20487;-68
2022/06/06 11:32:27;;;;;;;2.50;1.83;;;25.20;81.40;;;;;;4992090;28;21097;-70
2022/06/06 11:35:14;;;;;;;3.00;1.85;;;25.30;78.30;;;;;;5003194;28;20069;-75
2022/06/06 11:38:17;;;;;;;111.38;6.90;;;25.30;83.30;;;;;;4996330;28;20038;-67
2022/06/06 11:41:15;;;;;;;6.28;2.05;;;25.50;83.80;;;;;;4988201;28;20089;-71
2022/06/06 11:44:02;;;;;;;6.35;2.50;;;25.60;80.30;;;;;;4995558;28;20029;-71
2022/06/06 11:46:51;;;;;;;2.58;2.38;;;25.60;83.00;;;;;;4994685;28;20037;-72
2022/06/06 11:49:17;;;;;;;2.28;2.17;;;25.60;83.20;;;;;;4983730;28;20104;-72
2022/06/06 11:52:16;;;;;;;6.82;2.13;;;25.60;82.20;;;;;;4980410;28;20038;-75
2022/06/06 11:54:54;;;;;;;2.30;1.88;;;25.60;78.10;;;;;;4998299;28;20971;-73
2022/06/06 11:57:50;;;;;;;2.75;2.17;;;25.50;78.80;;;;;;4986922;28;20026;-72
2022/06/06 12:00:28;;;;;;;6.43;1.92;;;25.50;80.10;;;;;;4982378;28;20046;-74
2022/06/06 12:03:16;;;;;;;1.63;1.52;;;25.60;77.50;;;;;;4981864;28;20517;-79
2022/06/06 12:06:19;;;;;;;1.60;1.50;;;25.50;72.70;;;;;;4997684;28;20455;-76
2022/06/06 12:09:39;;;;;;;2.83;2.03;;;25.50;80.60;;;;;;5001991;28;20157;-77
2022/06/06 12:12:45;;;;;;;1.60;1.30;;;25.60;79.50;;;;;;4959334;28;20042;-75
2022/06/06 12:15:29;;;;;;;4.30;1.80;;;25.60;73.10;;;;;;4998835;28;20033;-73
2022/06/06 12:18:20;;;;;;;1.73;1.58;;;25.60;74.00;;;;;;4994006;28;20046;-72
2022/06/06 12:21:08;;;;;;;1.80;1.38;;;25.60;73.40;;;;;;4994467;28;20056;-71
2022/06/06 12:23:54;;;;;;;2.65;1.75;;;25.60;71.60;;;;;;4992631;28;20051;-70
2022/06/06 12:26:43;;;;;;;1.70;1.60;;;25.60;71.30;;;;;;5001919;28;20057;-71
2022/06/06 12:29:36;;;;;;;9.65;2.45;;;25.60;74.00;;;;;;4943641;28;20065;-77
2022/06/06 12:32:41;;;;;;;3.45;2.13;;;25.50;72.90;;;;;;5000029;28;20419;-70
2022/06/06 12:35:29;;;;;;;1.70;1.60;;;25.60;76.10;;;;;;4999600;28;20049;-68
2022/06/06 12:38:33;;;;;;;2.72;2.47;;;25.60;67.10;;;;;;5007843;28;20046;-69
2022/06/06 12:41:18;;;;;;;1.88;1.63;;;25.60;68.60;;;;;;4989533;28;20590;-69
2022/06/06 12:44:02;;;;;;;3.33;1.90;;;25.80;70.50;;;;;;5017012;28;20042;-71
2022/06/06 12:46:39;;;;;;;2.97;1.90;;;25.70;70.40;;;;;;5024807;28;20053;-70
2022/06/06 12:49:08;;;;;;;3.45;1.80;;;25.80;71.80;;;;;;5025184;28;20038;-72
2022/06/06 12:52:11;;;;;;;2.63;2.00;;;25.90;71.80;;;;;;5021705;28;20042;-74
2022/06/06 12:58:15;;;;;;;2.40;2.20;;;26.00;77.60;;;;;;5022128;28;20045;-73
2022/06/06 13:03:31;;;;;;;2.95;1.70;;;26.10;76.90;;;;;;5025718;28;20115;-76
2022/06/06 13:06:23;;;;;;;2.47;2.28;;;26.00;77.10;;;;;;5023610;28;20041;-77
2022/06/06 13:09:01;;;;;;;2.00;1.90;;;25.90;73.10;;;;;;5025793;28;20044;-76
2022/06/06 13:11:47;;;;;;;2.13;1.58;;;25.80;73.30;;;;;;5018756;28;20441;-77
2022/06/06 13:14:28;;;;;;;3.55;2.00;;;25.90;75.60;;;;;;5022776;28;20033;-77
2022/06/06 13:17:25;;;;;;;2.70;2.17;;;26.00;73.00;;;;;;5024108;28;20517;-78
2022/06/06 13:20:18;;;;;;;2.15;1.95;;;26.00;75.80;;;;;;5022333;28;20086;-77
2022/06/06 13:23:00;;;;;;;2.28;1.98;;;26.10;71.40;;;;;;5023314;28;20040;-77
2022/06/06 13:25:44;;;;;;;4.40;2.50;;;26.10;74.40;;;;;;5023515;28;20029;-74
2022/06/06 13:28:28;;;;;;;3.42;2.42;;;26.10;76.30;;;;;;5021536;28;20037;-77
2022/06/06 13:31:17;;;;;;;2.58;2.38;;;26.20;76.90;;;;;;5020649;28;20099;-72
2022/06/06 13:33:51;;;;;;;2.50;2.30;;;26.10;76.70;;;;;;5024790;28;20041;-73
2022/06/06 13:37:02;;;;;;;3.50;2.50;;;26.10;74.90;;;;;;5014774;28;20036;-76
2022/06/06 13:39:30;;;;;;;3.72;3.13;;;26.10;78.50;;;;;;5020795;28;20053;-74
2022/06/06 13:42:29;;;;;;;2.33;2.13;;;26.20;76.00;;;;;;5019314;28;20053;-75
2022/06/06 13:45:01;;;;;;;2.00;1.90;;;26.30;77.60;;;;;;5021773;28;20029;-76
2022/06/06 13:47:45;;;;;;;;;;;26.30;78.70;;;;;;5016924;28;20120;-71
2022/06/06 13:50:33;;;;;;;2.05;1.92;;;26.30;74.10;;;;;;5019995;28;19913;-76
2022/06/06 13:53:26;;;;;;;2.00;1.90;;;26.20;72.20;;;;;;5016508;28;20754;-75
2022/06/06 13:56:18;;;;;;;1.70;1.60;;;26.20;72.60;;;;;;5018365;28;20045;-72
2022/06/06 13:59:08;;;;;;;2.47;1.80;;;26.10;72.50;;;;;;5001811;28;20611;-75
2022/06/06 14:02:14;;;;;;;1.73;1.63;;;26.10;72.10;;;;;;5018330;28;20094;-72
2022/06/06 14:05:09;;;;;;;2.63;1.75;;;26.10;67.40;;;;;;5022187;28;20034;-77
2022/06/06 14:07:56;;;;;;;2.08;1.40;;;26.10;68.00;;;;;;5025763;28;20049;-74
2022/06/06 14:10:33;;;;;;;1.38;1.27;;;26.10;67.30;;;;;;5020114;28;20048;-75
2022/06/06 14:13:01;;;;;;;5.32;1.65;;;26.00;66.20;;;;;;5021108;28;20029;-76
2022/06/06 14:15:28;;;;;;;2.15;1.50;;;26.00;65.80;;;;;;5020903;28;20183;-74
2022/06/06 14:18:07;;;;;;;2.17;1.50;;;26.00;68.30;;;;;;5025684;28;20121;-74
2022/06/06 14:20:41;;;;;;;1.60;1.50;;;26.00;68.80;;;;;;5022823;28;20415;-75
2022/06/06 14:23:20;;;;;;;2.08;1.88;;;26.00;70.70;;;;;;5022020;28;20175;-78
2022/06/06 14:25:48;;;;;;;1.90;1.63;;;26.10;69.80;;;;;;5016134;28;20050;-77
2022/06/06 14:28:26;;;;;;;2.45;1.60;;;26.10;68.90;;;;;;5020072;28;20609;-75
2022/06/06 14:30:52;;;;;;;3.35;1.75;;;26.00;71.40;;;;;;5016598;28;20536;-75
2022/06/06 14:33:25;;;;;;;3.58;2.20;;;26.00;72.30;;;;;;5009728;28;20041;-74
2022/06/06 14:35:51;;;;;;;5.03;2.05;;;26.00;73.20;;;;;;5016962;28;20038;-76
2022/06/06 14:38:28;;;;;;;3.72;2.08;;;26.10;73.00;;;;;;5013383;28;20049;-83
2022/06/06 14:41:03;;;;;;;2.25;2.05;;;26.10;75.10;;;;;;5016841;28;20725;-74
2022/06/06 14:43:43;;;;;;;2.42;1.95;;;26.10;72.60;;;;;;5021549;28;20106;-76
2022/06/06 14:46:10;;;;;;;2.72;2.03;;;26.10;73.10;;;;;;5020115;28;20033;-76
2022/06/06 14:48:49;;;;;;;2.55;1.80;;;26.10;73.10;;;;;;5016536;28;20084;-80
2022/06/06 14:51:16;;;;;;;2.00;1.85;;;26.10;72.70;;;;;;5011257;28;20474;-82
2022/06/06 14:53:52;;;;;;;5.68;2.35;;;26.20;73.10;;;;;;5000604;28;20754;-78
2022/06/06 14:56:29;;;;;;;2.58;2.17;;;26.20;71.60;;;;;;5016917;28;21496;-80
2022/06/06 14:59:08;;;;;;;2.78;1.90;;;26.20;74.30;;;;;;5013852;28;20037;-78
2022/06/06 15:01:34;;;;;;;1.98;1.77;;;26.20;74.10;;;;;;5005189;28;20559;-81